sensor_id;sensor_type;location;lat;lon;timestamp;P1;P2;P0
29062;PMS5003;71206;48.564;-123.458;2024-01-30T00:02:02;11;10;
29062;PMS5003;71206;48.564;-123.458;2024-01-30T00:04:27;10;9;
29062;PMS5003;71206;48.564;-123.458;2024-01-30T00:06:52;7;6;
29062;PMS5003;71206;48.564;-123.458;2024-01-30T00:09:18;6;6;
29062;PMS5003;71206;48.564;-123.458;2024-01-30T00:11:43;6;6;
29062;PMS5003;71206;48.564;-123.458;2024-01-30T00:14:08;14;12;
29062;PMS5003;71206;48.564;-123.458;2024-01-30T00:16:33;30;22;
29062;PMS5003;71206;48.564;-123.458;2024-01-30T00:19:01;42;36;
29062;PMS5003;71206;48.564;-123.458;2024-01-30T00:21:25;52;38;
29062;PMS5003;71206;48.564;-123.458;2024-01-30T00:23:50;33;28;
29062;PMS5003;71206;48.564;-123.458;2024-01-30T00:26:15;22;19;
29062;PMS5003;71206;48.564;-123.458;2024-01-30T00:28:41;15;14;
29062;PMS5003;71206;48.564;-123.458;2024-01-30T00:31:06;10;10;
29062;PMS5003;71206;48.564;-123.458;2024-01-30T00:33:30;11;10;
29062;PMS5003;71206;48.564;-123.458;2024-01-30T00:35:56;11;10;
29062;PMS5003;71206;48.564;-123.458;2024-01-30T00:38:21;12;11;
29062;PMS5003;71206;48.564;-123.458;2024-01-30T00:40:46;12;11;
29062;PMS5003;71206;48.564;-123.458;2024-01-30T00:43:12;14;13;
29062;PMS5003;71206;48.564;-123.458;2024-01-30T00:45:37;11;11;
29062;PMS5003;71206;48.564;-123.458;2024-01-30T00:48:02;9;9;
29062;PMS5003;71206;48.564;-123.458;2024-01-30T00:50:27;10;10;
29062;PMS5003;71206;48.564;-123.458;2024-01-30T00:52:52;11;10;
29062;PMS5003;71206;48.564;-123.458;2024-01-30T00:55:17;12;11;
29062;PMS5003;71206;48.564;-123.458;2024-01-30T00:57:43;14;12;
29062;PMS5003;71206;48.564;-123.458;2024-01-30T01:00:09;11;11;
29062;PMS5003;71206;48.564;-123.458;2024-01-30T01:02:33;10;10;
29062;PMS5003;71206;48.564;-123.458;2024-01-30T01:04:58;12;11;
29062;PMS5003;71206;48.564;-123.458;2024-01-30T01:07:23;7;7;
29062;PMS5003;71206;48.564;-123.458;2024-01-30T01:09:49;12;10;
29062;PMS5003;71206;48.564;-123.458;2024-01-30T01:12:14;16;12;
29062;PMS5003;71206;48.564;-123.458;2024-01-30T01:14:44;13;11;
29062;PMS5003;71206;48.564;-123.458;2024-01-30T01:17:04;10;10;
29062;PMS5003;71206;48.564;-123.458;2024-01-30T01:19:29;13;10;
29062;PMS5003;71206;48.564;-123.458;2024-01-30T01:21:54;11;10;
29062;PMS5003;71206;48.564;-123.458;2024-01-30T01:24:19;9;8;
29062;PMS5003;71206;48.564;-123.458;2024-01-30T01:26:52;9;7;
29062;PMS5003;71206;48.564;-123.458;2024-01-30T01:29:10;9;8;
29062;PMS5003;71206;48.564;-123.458;2024-01-30T01:31:35;10;9;
29062;PMS5003;71206;48.564;-123.458;2024-01-30T01:34:02;10;10;
29062;PMS5003;71206;48.564;-123.458;2024-01-30T01:36:26;10;8;
29062;PMS5003;71206;48.564;-123.458;2024-01-30T01:38:53;10;10;
29062;PMS5003;71206;48.564;-123.458;2024-01-30T01:41:15;10;9;
29062;PMS5003;71206;48.564;-123.458;2024-01-30T01:43:40;10;10;
29062;PMS5003;71206;48.564;-123.458;2024-01-30T01:46:06;8;8;
29062;PMS5003;71206;48.564;-123.458;2024-01-30T01:48:31;6;5;
29062;PMS5003;71206;48.564;-123.458;2024-01-30T01:50:56;9;7;
29062;PMS5003;71206;48.564;-123.458;2024-01-30T01:53:21;6;5;
29062;PMS5003;71206;48.564;-123.458;2024-01-30T01:55:46;10;10;
29062;PMS5003;71206;48.564;-123.458;2024-01-30T01:58:12;14;12;
29062;PMS5003;71206;48.564;-123.458;2024-01-30T02:00:39;24;17;
29062;PMS5003;71206;48.564;-123.458;2024-01-30T02:03:03;19;16;
29062;PMS5003;71206;48.564;-123.458;2024-01-30T02:05:28;14;13;
29062;PMS5003;71206;48.564;-123.458;2024-01-30T02:07:53;19;17;
29062;PMS5003;71206;48.564;-123.458;2024-01-30T02:10:18;20;17;
29062;PMS5003;71206;48.564;-123.458;2024-01-30T02:12:44;19;17;
29062;PMS5003;71206;48.564;-123.458;2024-01-30T02:15:12;10;10;
29062;PMS5003;71206;48.564;-123.458;2024-01-30T02:17:34;9;9;
29062;PMS5003;71206;48.564;-123.458;2024-01-30T02:20:00;11;10;
29062;PMS5003;71206;48.564;-123.458;2024-01-30T02:22:26;11;11;
29062;PMS5003;71206;48.564;-123.458;2024-01-30T02:24:51;9;9;
29062;PMS5003;71206;48.564;-123.458;2024-01-30T02:27:18;18;16;
29062;PMS5003;71206;48.564;-123.458;2024-01-30T02:29:42;23;18;
29062;PMS5003;71206;48.564;-123.458;2024-01-30T02:32:07;18;17;
29062;PMS5003;71206;48.564;-123.458;2024-01-30T02:34:36;20;19;
29062;PMS5003;71206;48.564;-123.458;2024-01-30T02:36:59;28;27;
29062;PMS5003;71206;48.564;-123.458;2024-01-30T02:39:24;31;28;
29062;PMS5003;71206;48.564;-123.458;2024-01-30T02:41:49;48;42;
29062;PMS5003;71206;48.564;-123.458;2024-01-30T02:44:15;36;33;
29062;PMS5003;71206;48.564;-123.458;2024-01-30T02:46:43;33;29;
29062;PMS5003;71206;48.564;-123.458;2024-01-30T02:49:05;30;27;
29062;PMS5003;71206;48.564;-123.458;2024-01-30T02:51:32;35;32;
29062;PMS5003;71206;48.564;-123.458;2024-01-30T02:53:57;32;28;
29062;PMS5003;71206;48.564;-123.458;2024-01-30T02:56:23;30;25;
29062;PMS5003;71206;48.564;-123.458;2024-01-30T02:58:50;30;28;
29062;PMS5003;71206;48.564;-123.458;2024-01-30T03:01:13;29;26;
29062;PMS5003;71206;48.564;-123.458;2024-01-30T03:03:39;25;21;
29062;PMS5003;71206;48.564;-123.458;2024-01-30T03:06:04;22;21;
29062;PMS5003;71206;48.564;-123.458;2024-01-30T03:08:29;24;21;
29062;PMS5003;71206;48.564;-123.458;2024-01-30T03:10:55;28;25;
29062;PMS5003;71206;48.564;-123.458;2024-01-30T03:13:21;22;20;
29062;PMS5003;71206;48.564;-123.458;2024-01-30T03:15:46;21;20;
29062;PMS5003;71206;48.564;-123.458;2024-01-30T03:18:11;25;23;
29062;PMS5003;71206;48.564;-123.458;2024-01-30T03:20:36;24;19;
29062;PMS5003;71206;48.564;-123.458;2024-01-30T03:23:02;26;24;
29062;PMS5003;71206;48.564;-123.458;2024-01-30T03:25:27;21;20;
29062;PMS5003;71206;48.564;-123.458;2024-01-30T03:27:52;20;19;
29062;PMS5003;71206;48.564;-123.458;2024-01-30T03:30:18;27;24;
29062;PMS5003;71206;48.564;-123.458;2024-01-30T03:32:43;24;21;
29062;PMS5003;71206;48.564;-123.458;2024-01-30T03:35:09;20;18;
29062;PMS5003;71206;48.564;-123.458;2024-01-30T03:37:34;18;17;
29062;PMS5003;71206;48.564;-123.458;2024-01-30T03:40:00;22;22;
29062;PMS5003;71206;48.564;-123.458;2024-01-30T03:42:25;20;18;
29062;PMS5003;71206;48.564;-123.458;2024-01-30T03:44:50;14;14;
29062;PMS5003;71206;48.564;-123.458;2024-01-30T03:47:17;19;13;
29062;PMS5003;71206;48.564;-123.458;2024-01-30T03:49:42;15;13;
29062;PMS5003;71206;48.564;-123.458;2024-01-30T03:52:07;13;12;
29062;PMS5003;71206;48.564;-123.458;2024-01-30T03:54:32;20;16;
29062;PMS5003;71206;48.564;-123.458;2024-01-30T03:56:57;17;16;
29062;PMS5003;71206;48.564;-123.458;2024-01-30T03:59:24;19;17;
29062;PMS5003;71206;48.564;-123.458;2024-01-30T04:01:48;14;12;
29062;PMS5003;71206;48.564;-123.458;2024-01-30T04:04:13;13;13;
29062;PMS5003;71206;48.564;-123.458;2024-01-30T04:06:38;2;1;
29062;PMS5003;71206;48.564;-123.458;2024-01-30T04:09:03;2;2;
29062;PMS5003;71206;48.564;-123.458;2024-01-30T04:11:28;1;1;
29062;PMS5003;71206;48.564;-123.458;2024-01-30T04:13:53;1;1;
29062;PMS5003;71206;48.564;-123.458;2024-01-30T04:16:20;2;1;
29062;PMS5003;71206;48.564;-123.458;2024-01-30T04:18:46;4;3;
29062;PMS5003;71206;48.564;-123.458;2024-01-30T04:21:09;1;1;
29062;PMS5003;71206;48.564;-123.458;2024-01-30T04:23:35;1;1;
29062;PMS5003;71206;48.564;-123.458;2024-01-30T04:25:59;0;0;
29062;PMS5003;71206;48.564;-123.458;2024-01-30T04:28:24;1;0;
29062;PMS5003;71206;48.564;-123.458;2024-01-30T04:30:50;1;1;
29062;PMS5003;71206;48.564;-123.458;2024-01-30T04:33:15;0;0;
29062;PMS5003;71206;48.564;-123.458;2024-01-30T04:35:43;0;0;
29062;PMS5003;71206;48.564;-123.458;2024-01-30T04:38:04;1;0;
29062;PMS5003;71206;48.564;-123.458;2024-01-30T04:40:29;0;0;
29062;PMS5003;71206;48.564;-123.458;2024-01-30T04:42:55;1;0;
29062;PMS5003;71206;48.564;-123.458;2024-01-30T04:45:21;0;0;
29062;PMS5003;71206;48.564;-123.458;2024-01-30T04:47:46;0;0;
29062;PMS5003;71206;48.564;-123.458;2024-01-30T04:50:10;3;2;
29062;PMS5003;71206;48.564;-123.458;2024-01-30T04:52:35;7;6;
29062;PMS5003;71206;48.564;-123.458;2024-01-30T04:55:00;6;5;
29062;PMS5003;71206;48.564;-123.458;2024-01-30T04:57:25;6;6;
29062;PMS5003;71206;48.564;-123.458;2024-01-30T04:59:50;1;1;
29062;PMS5003;71206;48.564;-123.458;2024-01-30T05:02:15;6;5;
29062;PMS5003;71206;48.564;-123.458;2024-01-30T05:04:41;1;1;
29062;PMS5003;71206;48.564;-123.458;2024-01-30T05:07:05;0;0;
29062;PMS5003;71206;48.564;-123.458;2024-01-30T05:09:31;1;1;
29062;PMS5003;71206;48.564;-123.458;2024-01-30T05:11:56;0;0;
29062;PMS5003;71206;48.564;-123.458;2024-01-30T05:14:21;0;0;
29062;PMS5003;71206;48.564;-123.458;2024-01-30T05:16:51;0;0;
29062;PMS5003;71206;48.564;-123.458;2024-01-30T05:19:11;0;0;
29062;PMS5003;71206;48.564;-123.458;2024-01-30T05:21:36;0;0;
29062;PMS5003;71206;48.564;-123.458;2024-01-30T05:24:01;0;0;
29062;PMS5003;71206;48.564;-123.458;2024-01-30T05:26:26;1;1;
29062;PMS5003;71206;48.564;-123.458;2024-01-30T05:28:51;2;1;
29062;PMS5003;71206;48.564;-123.458;2024-01-30T05:31:16;2;2;
29062;PMS5003;71206;48.564;-123.458;2024-01-30T05:33:46;1;1;
29062;PMS5003;71206;48.564;-123.458;2024-01-30T05:36:07;1;1;
29062;PMS5003;71206;48.564;-123.458;2024-01-30T05:38:33;0;0;
29062;PMS5003;71206;48.564;-123.458;2024-01-30T05:40:58;0;0;
29062;PMS5003;71206;48.564;-123.458;2024-01-30T05:43:22;1;1;
29062;PMS5003;71206;48.564;-123.458;2024-01-30T05:45:48;0;0;
29062;PMS5003;71206;48.564;-123.458;2024-01-30T05:48:12;1;1;
29062;PMS5003;71206;48.564;-123.458;2024-01-30T05:50:37;1;1;
29062;PMS5003;71206;48.564;-123.458;2024-01-30T05:53:02;0;0;
29062;PMS5003;71206;48.564;-123.458;2024-01-30T05:55:27;4;4;
29062;PMS5003;71206;48.564;-123.458;2024-01-30T05:57:52;5;3;
29062;PMS5003;71206;48.564;-123.458;2024-01-30T06:00:18;5;4;
29062;PMS5003;71206;48.564;-123.458;2024-01-30T06:02:43;2;2;
29062;PMS5003;71206;48.564;-123.458;2024-01-30T06:05:09;3;2;
29062;PMS5003;71206;48.564;-123.458;2024-01-30T06:07:33;3;2;
29062;PMS5003;71206;48.564;-123.458;2024-01-30T06:09:58;2;2;
29062;PMS5003;71206;48.564;-123.458;2024-01-30T06:12:23;2;2;
29062;PMS5003;71206;48.564;-123.458;2024-01-30T06:14:49;3;3;
29062;PMS5003;71206;48.564;-123.458;2024-01-30T06:17:14;3;3;
29062;PMS5003;71206;48.564;-123.458;2024-01-30T06:19:39;2;2;
29062;PMS5003;71206;48.564;-123.458;2024-01-30T06:22:04;0;0;
29062;PMS5003;71206;48.564;-123.458;2024-01-30T06:24:29;2;0;
29062;PMS5003;71206;48.564;-123.458;2024-01-30T06:26:54;0;0;
29062;PMS5003;71206;48.564;-123.458;2024-01-30T06:29:19;2;2;
29062;PMS5003;71206;48.564;-123.458;2024-01-30T06:31:45;1;1;
29062;PMS5003;71206;48.564;-123.458;2024-01-30T06:34:09;2;1;
29062;PMS5003;71206;48.564;-123.458;2024-01-30T06:36:35;0;0;
29062;PMS5003;71206;48.564;-123.458;2024-01-30T06:38:59;1;1;
29062;PMS5003;71206;48.564;-123.458;2024-01-30T06:41:24;3;2;
29062;PMS5003;71206;48.564;-123.458;2024-01-30T06:43:50;2;2;
29062;PMS5003;71206;48.564;-123.458;2024-01-30T06:46:14;3;2;
29062;PMS5003;71206;48.564;-123.458;2024-01-30T06:48:40;2;2;
29062;PMS5003;71206;48.564;-123.458;2024-01-30T06:51:05;0;0;
29062;PMS5003;71206;48.564;-123.458;2024-01-30T06:53:30;1;1;
29062;PMS5003;71206;48.564;-123.458;2024-01-30T06:55:55;3;2;
29062;PMS5003;71206;48.564;-123.458;2024-01-30T06:58:20;1;1;
29062;PMS5003;71206;48.564;-123.458;2024-01-30T07:00:45;1;1;
29062;PMS5003;71206;48.564;-123.458;2024-01-30T07:03:10;2;1;
29062;PMS5003;71206;48.564;-123.458;2024-01-30T07:05:35;2;1;
29062;PMS5003;71206;48.564;-123.458;2024-01-30T07:08:01;1;1;
29062;PMS5003;71206;48.564;-123.458;2024-01-30T07:10:26;0;0;
29062;PMS5003;71206;48.564;-123.458;2024-01-30T07:12:50;0;0;
29062;PMS5003;71206;48.564;-123.458;2024-01-30T07:15:16;1;1;
29062;PMS5003;71206;48.564;-123.458;2024-01-30T07:17:41;0;0;
29062;PMS5003;71206;48.564;-123.458;2024-01-30T07:20:07;1;1;
29062;PMS5003;71206;48.564;-123.458;2024-01-30T07:22:32;2;1;
29062;PMS5003;71206;48.564;-123.458;2024-01-30T07:24:56;1;1;
29062;PMS5003;71206;48.564;-123.458;2024-01-30T07:27:21;1;1;
29062;PMS5003;71206;48.564;-123.458;2024-01-30T07:29:47;0;0;
29062;PMS5003;71206;48.564;-123.458;2024-01-30T07:32:15;0;0;
29062;PMS5003;71206;48.564;-123.458;2024-01-30T07:34:37;1;0;
29062;PMS5003;71206;48.564;-123.458;2024-01-30T07:37:05;0;0;
29062;PMS5003;71206;48.564;-123.458;2024-01-30T07:39:27;0;0;
29062;PMS5003;71206;48.564;-123.458;2024-01-30T07:41:52;0;0;
29062;PMS5003;71206;48.564;-123.458;2024-01-30T07:44:17;0;0;
29062;PMS5003;71206;48.564;-123.458;2024-01-30T07:46:43;0;0;
29062;PMS5003;71206;48.564;-123.458;2024-01-30T07:49:07;1;0;
29062;PMS5003;71206;48.564;-123.458;2024-01-30T07:51:32;0;0;
29062;PMS5003;71206;48.564;-123.458;2024-01-30T07:53:57;1;1;
29062;PMS5003;71206;48.564;-123.458;2024-01-30T07:56:23;1;0;
29062;PMS5003;71206;48.564;-123.458;2024-01-30T07:58:50;0;0;
29062;PMS5003;71206;48.564;-123.458;2024-01-30T08:01:14;1;0;
29062;PMS5003;71206;48.564;-123.458;2024-01-30T08:03:39;2;0;
29062;PMS5003;71206;48.564;-123.458;2024-01-30T08:06:03;0;0;
29062;PMS5003;71206;48.564;-123.458;2024-01-30T08:08:29;0;0;
29062;PMS5003;71206;48.564;-123.458;2024-01-30T08:10:53;0;0;
29062;PMS5003;71206;48.564;-123.458;2024-01-30T08:13:19;0;0;
29062;PMS5003;71206;48.564;-123.458;2024-01-30T08:15:43;0;0;
29062;PMS5003;71206;48.564;-123.458;2024-01-30T08:18:08;0;0;
29062;PMS5003;71206;48.564;-123.458;2024-01-30T08:20:34;0;0;
29062;PMS5003;71206;48.564;-123.458;2024-01-30T08:22:59;1;0;
29062;PMS5003;71206;48.564;-123.458;2024-01-30T08:25:23;2;0;
29062;PMS5003;71206;48.564;-123.458;2024-01-30T08:27:48;0;0;
29062;PMS5003;71206;48.564;-123.458;2024-01-30T08:30:14;0;0;
29062;PMS5003;71206;48.564;-123.458;2024-01-30T08:32:39;0;0;
29062;PMS5003;71206;48.564;-123.458;2024-01-30T08:35:04;0;0;
29062;PMS5003;71206;48.564;-123.458;2024-01-30T08:37:29;0;0;
29062;PMS5003;71206;48.564;-123.458;2024-01-30T08:39:54;0;0;
29062;PMS5003;71206;48.564;-123.458;2024-01-30T08:42:19;1;1;
29062;PMS5003;71206;48.564;-123.458;2024-01-30T08:44:44;1;1;
29062;PMS5003;71206;48.564;-123.458;2024-01-30T08:47:11;0;0;
29062;PMS5003;71206;48.564;-123.458;2024-01-30T08:49:35;0;0;
29062;PMS5003;71206;48.564;-123.458;2024-01-30T08:52:00;0;0;
29062;PMS5003;71206;48.564;-123.458;2024-01-30T08:54:25;0;0;
29062;PMS5003;71206;48.564;-123.458;2024-01-30T08:56:52;0;0;
29062;PMS5003;71206;48.564;-123.458;2024-01-30T08:59:16;1;0;
29062;PMS5003;71206;48.564;-123.458;2024-01-30T09:01:40;0;0;
29062;PMS5003;71206;48.564;-123.458;2024-01-30T09:04:05;1;0;
29062;PMS5003;71206;48.564;-123.458;2024-01-30T09:06:31;1;0;
29062;PMS5003;71206;48.564;-123.458;2024-01-30T09:08:55;1;0;
29062;PMS5003;71206;48.564;-123.458;2024-01-30T09:11:22;0;0;
29062;PMS5003;71206;48.564;-123.458;2024-01-30T09:13:45;1;0;
29062;PMS5003;71206;48.564;-123.458;2024-01-30T09:16:11;0;0;
29062;PMS5003;71206;48.564;-123.458;2024-01-30T09:18:36;0;0;
29062;PMS5003;71206;48.564;-123.458;2024-01-30T09:21:01;1;1;
29062;PMS5003;71206;48.564;-123.458;2024-01-30T09:23:27;0;0;
29062;PMS5003;71206;48.564;-123.458;2024-01-30T09:25:51;0;0;
29062;PMS5003;71206;48.564;-123.458;2024-01-30T09:28:17;0;0;
29062;PMS5003;71206;48.564;-123.458;2024-01-30T09:30:41;1;1;
29062;PMS5003;71206;48.564;-123.458;2024-01-30T09:33:06;2;1;
29062;PMS5003;71206;48.564;-123.458;2024-01-30T09:35:32;0;0;
29062;PMS5003;71206;48.564;-123.458;2024-01-30T09:37:57;1;0;
29062;PMS5003;71206;48.564;-123.458;2024-01-30T09:40:22;1;1;
29062;PMS5003;71206;48.564;-123.458;2024-01-30T09:42:51;1;1;
29062;PMS5003;71206;48.564;-123.458;2024-01-30T09:45:12;2;2;
29062;PMS5003;71206;48.564;-123.458;2024-01-30T09:47:39;1;0;
29062;PMS5003;71206;48.564;-123.458;2024-01-30T09:50:02;2;1;
29062;PMS5003;71206;48.564;-123.458;2024-01-30T09:52:28;1;0;
29062;PMS5003;71206;48.564;-123.458;2024-01-30T09:54:53;2;1;
29062;PMS5003;71206;48.564;-123.458;2024-01-30T09:57:18;1;1;
29062;PMS5003;71206;48.564;-123.458;2024-01-30T09:59:43;1;1;
29062;PMS5003;71206;48.564;-123.458;2024-01-30T10:02:13;1;1;
29062;PMS5003;71206;48.564;-123.458;2024-01-30T10:04:33;1;1;
29062;PMS5003;71206;48.564;-123.458;2024-01-30T10:07:00;1;1;
29062;PMS5003;71206;48.564;-123.458;2024-01-30T10:09:24;1;1;
29062;PMS5003;71206;48.564;-123.458;2024-01-30T10:11:49;2;2;
29062;PMS5003;71206;48.564;-123.458;2024-01-30T10:14:15;1;1;
29062;PMS5003;71206;48.564;-123.458;2024-01-30T10:16:39;1;1;
29062;PMS5003;71206;48.564;-123.458;2024-01-30T10:19:04;0;0;
29062;PMS5003;71206;48.564;-123.458;2024-01-30T10:21:29;2;1;
29062;PMS5003;71206;48.564;-123.458;2024-01-30T10:23:54;2;1;
29062;PMS5003;71206;48.564;-123.458;2024-01-30T10:26:20;1;0;
29062;PMS5003;71206;48.564;-123.458;2024-01-30T10:28:45;2;0;
29062;PMS5003;71206;48.564;-123.458;2024-01-30T10:31:10;0;0;
29062;PMS5003;71206;48.564;-123.458;2024-01-30T10:33:35;1;0;
29062;PMS5003;71206;48.564;-123.458;2024-01-30T10:36:01;2;2;
29062;PMS5003;71206;48.564;-123.458;2024-01-30T10:38:26;1;1;
29062;PMS5003;71206;48.564;-123.458;2024-01-30T10:40:51;1;1;
29062;PMS5003;71206;48.564;-123.458;2024-01-30T10:43:16;3;2;
29062;PMS5003;71206;48.564;-123.458;2024-01-30T10:45:41;1;1;
29062;PMS5003;71206;48.564;-123.458;2024-01-30T10:48:07;1;1;
29062;PMS5003;71206;48.564;-123.458;2024-01-30T10:50:31;1;1;
29062;PMS5003;71206;48.564;-123.458;2024-01-30T10:52:56;0;0;
29062;PMS5003;71206;48.564;-123.458;2024-01-30T10:55:22;3;1;
29062;PMS5003;71206;48.564;-123.458;2024-01-30T10:57:49;1;1;
29062;PMS5003;71206;48.564;-123.458;2024-01-30T11:00:13;2;2;
29062;PMS5003;71206;48.564;-123.458;2024-01-30T11:02:39;4;1;
29062;PMS5003;71206;48.564;-123.458;2024-01-30T11:05:04;1;1;
29062;PMS5003;71206;48.564;-123.458;2024-01-30T11:07:28;2;2;
29062;PMS5003;71206;48.564;-123.458;2024-01-30T11:09:53;3;2;
29062;PMS5003;71206;48.564;-123.458;2024-01-30T11:12:21;1;1;
29062;PMS5003;71206;48.564;-123.458;2024-01-30T11:14:43;2;1;
29062;PMS5003;71206;48.564;-123.458;2024-01-30T11:17:08;1;1;
29062;PMS5003;71206;48.564;-123.458;2024-01-30T11:19:33;1;1;
29062;PMS5003;71206;48.564;-123.458;2024-01-30T11:21:59;2;1;
29062;PMS5003;71206;48.564;-123.458;2024-01-30T11:24:23;1;1;
29062;PMS5003;71206;48.564;-123.458;2024-01-30T11:26:49;4;2;
29062;PMS5003;71206;48.564;-123.458;2024-01-30T11:29:13;1;1;
29062;PMS5003;71206;48.564;-123.458;2024-01-30T11:31:39;2;1;
29062;PMS5003;71206;48.564;-123.458;2024-01-30T11:34:04;3;1;
29062;PMS5003;71206;48.564;-123.458;2024-01-30T11:36:29;3;3;
29062;PMS5003;71206;48.564;-123.458;2024-01-30T11:38:54;1;1;
29062;PMS5003;71206;48.564;-123.458;2024-01-30T11:41:21;1;1;
29062;PMS5003;71206;48.564;-123.458;2024-01-30T11:46:09;2;1;
29062;PMS5003;71206;48.564;-123.458;2024-01-30T11:48:35;1;0;
29062;PMS5003;71206;48.564;-123.458;2024-01-30T11:51:00;2;1;
29062;PMS5003;71206;48.564;-123.458;2024-01-30T11:53:25;1;1;
29062;PMS5003;71206;48.564;-123.458;2024-01-30T11:55:50;4;3;
29062;PMS5003;71206;48.564;-123.458;2024-01-30T11:58:16;2;2;
29062;PMS5003;71206;48.564;-123.458;2024-01-30T12:00:40;2;2;
29062;PMS5003;71206;48.564;-123.458;2024-01-30T12:03:06;4;3;
29062;PMS5003;71206;48.564;-123.458;2024-01-30T12:05:31;5;5;
29062;PMS5003;71206;48.564;-123.458;2024-01-30T12:07:56;4;3;
29062;PMS5003;71206;48.564;-123.458;2024-01-30T12:10:21;2;2;
29062;PMS5003;71206;48.564;-123.458;2024-01-30T12:12:47;2;2;
29062;PMS5003;71206;48.564;-123.458;2024-01-30T12:15:11;4;4;
29062;PMS5003;71206;48.564;-123.458;2024-01-30T12:17:36;2;2;
29062;PMS5003;71206;48.564;-123.458;2024-01-30T12:20:03;3;2;
29062;PMS5003;71206;48.564;-123.458;2024-01-30T12:22:26;3;2;
29062;PMS5003;71206;48.564;-123.458;2024-01-30T12:24:57;4;3;
29062;PMS5003;71206;48.564;-123.458;2024-01-30T12:27:17;2;2;
29062;PMS5003;71206;48.564;-123.458;2024-01-30T12:29:42;1;1;
29062;PMS5003;71206;48.564;-123.458;2024-01-30T12:32:07;2;2;
29062;PMS5003;71206;48.564;-123.458;2024-01-30T12:34:32;1;1;
29062;PMS5003;71206;48.564;-123.458;2024-01-30T12:36:57;2;1;
29062;PMS5003;71206;48.564;-123.458;2024-01-30T12:39:22;2;2;
29062;PMS5003;71206;48.564;-123.458;2024-01-30T12:41:48;1;1;
29062;PMS5003;71206;48.564;-123.458;2024-01-30T12:44:13;3;2;
29062;PMS5003;71206;48.564;-123.458;2024-01-30T12:46:40;1;1;
29062;PMS5003;71206;48.564;-123.458;2024-01-30T12:49:03;3;1;
29062;PMS5003;71206;48.564;-123.458;2024-01-30T12:51:28;2;2;
29062;PMS5003;71206;48.564;-123.458;2024-01-30T12:53:53;3;2;
29062;PMS5003;71206;48.564;-123.458;2024-01-30T12:56:18;2;1;
29062;PMS5003;71206;48.564;-123.458;2024-01-30T12:58:44;1;1;
29062;PMS5003;71206;48.564;-123.458;2024-01-30T13:01:09;0;0;
29062;PMS5003;71206;48.564;-123.458;2024-01-30T13:03:34;2;1;
29062;PMS5003;71206;48.564;-123.458;2024-01-30T13:05:59;1;1;
29062;PMS5003;71206;48.564;-123.458;2024-01-30T13:08:24;2;1;
29062;PMS5003;71206;48.564;-123.458;2024-01-30T13:10:52;1;0;
29062;PMS5003;71206;48.564;-123.458;2024-01-30T13:13:15;4;3;
29062;PMS5003;71206;48.564;-123.458;2024-01-30T13:15:39;1;1;
29062;PMS5003;71206;48.564;-123.458;2024-01-30T13:18:05;2;2;
29062;PMS5003;71206;48.564;-123.458;2024-01-30T13:20:30;1;1;
29062;PMS5003;71206;48.564;-123.458;2024-01-30T13:22:55;2;2;
29062;PMS5003;71206;48.564;-123.458;2024-01-30T13:25:20;3;3;
29062;PMS5003;71206;48.564;-123.458;2024-01-30T13:27:47;3;3;
29062;PMS5003;71206;48.564;-123.458;2024-01-30T13:30:11;3;3;
29062;PMS5003;71206;48.564;-123.458;2024-01-30T13:32:36;4;3;
29062;PMS5003;71206;48.564;-123.458;2024-01-30T13:35:01;3;3;
29062;PMS5003;71206;48.564;-123.458;2024-01-30T13:37:26;2;2;
29062;PMS5003;71206;48.564;-123.458;2024-01-30T13:39:51;4;4;
29062;PMS5003;71206;48.564;-123.458;2024-01-30T13:42:16;2;2;
29062;PMS5003;71206;48.564;-123.458;2024-01-30T13:44:41;4;3;
29062;PMS5003;71206;48.564;-123.458;2024-01-30T13:47:07;3;3;
29062;PMS5003;71206;48.564;-123.458;2024-01-30T13:49:31;2;2;
29062;PMS5003;71206;48.564;-123.458;2024-01-30T13:51:57;3;3;
29062;PMS5003;71206;48.564;-123.458;2024-01-30T13:54:22;6;5;
29062;PMS5003;71206;48.564;-123.458;2024-01-30T13:56:47;3;3;
29062;PMS5003;71206;48.564;-123.458;2024-01-30T13:59:15;1;1;
29062;PMS5003;71206;48.564;-123.458;2024-01-30T14:01:37;1;1;
29062;PMS5003;71206;48.564;-123.458;2024-01-30T14:04:02;4;3;
29062;PMS5003;71206;48.564;-123.458;2024-01-30T14:06:28;1;1;
29062;PMS5003;71206;48.564;-123.458;2024-01-30T14:08:53;2;2;
29062;PMS5003;71206;48.564;-123.458;2024-01-30T14:11:18;1;1;
29062;PMS5003;71206;48.564;-123.458;2024-01-30T14:13:43;3;3;
29062;PMS5003;71206;48.564;-123.458;2024-01-30T14:16:08;3;2;
29062;PMS5003;71206;48.564;-123.458;2024-01-30T14:18:33;2;2;
29062;PMS5003;71206;48.564;-123.458;2024-01-30T14:20:58;2;2;
29062;PMS5003;71206;48.564;-123.458;2024-01-30T14:23:24;3;2;
29062;PMS5003;71206;48.564;-123.458;2024-01-30T14:25:49;1;1;
29062;PMS5003;71206;48.564;-123.458;2024-01-30T14:28:14;1;1;
29062;PMS5003;71206;48.564;-123.458;2024-01-30T14:30:39;2;2;
29062;PMS5003;71206;48.564;-123.458;2024-01-30T14:33:04;1;0;
29062;PMS5003;71206;48.564;-123.458;2024-01-30T14:35:29;1;1;
29062;PMS5003;71206;48.564;-123.458;2024-01-30T14:37:54;2;1;
29062;PMS5003;71206;48.564;-123.458;2024-01-30T14:40:19;2;1;
29062;PMS5003;71206;48.564;-123.458;2024-01-30T14:42:45;1;1;
29062;PMS5003;71206;48.564;-123.458;2024-01-30T14:45:11;3;2;
29062;PMS5003;71206;48.564;-123.458;2024-01-30T14:47:35;3;3;
29062;PMS5003;71206;48.564;-123.458;2024-01-30T14:50:00;1;1;
29062;PMS5003;71206;48.564;-123.458;2024-01-30T14:52:25;2;2;
29062;PMS5003;71206;48.564;-123.458;2024-01-30T14:54:51;2;2;
29062;PMS5003;71206;48.564;-123.458;2024-01-30T14:57:16;2;2;
29062;PMS5003;71206;48.564;-123.458;2024-01-30T14:59:41;2;2;
29062;PMS5003;71206;48.564;-123.458;2024-01-30T15:02:06;3;3;
29062;PMS5003;71206;48.564;-123.458;2024-01-30T15:04:31;2;2;
29062;PMS5003;71206;48.564;-123.458;2024-01-30T15:06:57;2;2;
29062;PMS5003;71206;48.564;-123.458;2024-01-30T15:09:22;3;2;
29062;PMS5003;71206;48.564;-123.458;2024-01-30T15:11:48;2;2;
29062;PMS5003;71206;48.564;-123.458;2024-01-30T15:14:12;3;3;
29062;PMS5003;71206;48.564;-123.458;2024-01-30T15:16:37;4;3;
29062;PMS5003;71206;48.564;-123.458;2024-01-30T15:19:03;3;2;
29062;PMS5003;71206;48.564;-123.458;2024-01-30T15:21:28;3;3;
29062;PMS5003;71206;48.564;-123.458;2024-01-30T15:23:58;3;3;
29062;PMS5003;71206;48.564;-123.458;2024-01-30T15:26:18;3;3;
29062;PMS5003;71206;48.564;-123.458;2024-01-30T15:28:43;4;4;
29062;PMS5003;71206;48.564;-123.458;2024-01-30T15:31:08;5;5;
29062;PMS5003;71206;48.564;-123.458;2024-01-30T15:33:34;3;3;
29062;PMS5003;71206;48.564;-123.458;2024-01-30T15:36:00;2;2;
29062;PMS5003;71206;48.564;-123.458;2024-01-30T15:38:24;3;3;
29062;PMS5003;71206;48.564;-123.458;2024-01-30T15:40:49;2;1;
29062;PMS5003;71206;48.564;-123.458;2024-01-30T15:43:14;3;2;